sensor_id;sensor_type;location;lat;lon;timestamp;temperature;humidity
59923;DHT22;45778;51.142;3.732;2023-09-08T00:00:12;20.40;99.90
59923;DHT22;45778;51.142;3.732;2023-09-08T00:02:38;20.40;99.90
59923;DHT22;45778;51.142;3.732;2023-09-08T00:05:04;20.40;99.90
59923;DHT22;45778;51.142;3.732;2023-09-08T00:07:29;20.40;99.90
59923;DHT22;45778;51.142;3.732;2023-09-08T00:09:55;20.40;99.90
59923;DHT22;45778;51.142;3.732;2023-09-08T00:12:21;20.40;99.90
59923;DHT22;45778;51.142;3.732;2023-09-08T00:14:47;20.40;99.90
59923;DHT22;45778;51.142;3.732;2023-09-08T00:17:12;20.30;99.90
59923;DHT22;45778;51.142;3.732;2023-09-08T00:19:38;20.20;99.90
59923;DHT22;45778;51.142;3.732;2023-09-08T00:22:04;20.20;99.90
59923;DHT22;45778;51.142;3.732;2023-09-08T00:24:31;20.10;99.90
59923;DHT22;45778;51.142;3.732;2023-09-08T00:26:57;20.00;99.90
59923;DHT22;45778;51.142;3.732;2023-09-08T00:29:22;20.00;99.90
59923;DHT22;45778;51.142;3.732;2023-09-08T00:31:48;19.90;99.90
59923;DHT22;45778;51.142;3.732;2023-09-08T00:34:13;19.90;99.90
59923;DHT22;45778;51.142;3.732;2023-09-08T00:36:39;19.90;99.90
59923;DHT22;45778;51.142;3.732;2023-09-08T00:39:05;19.70;99.90
59923;DHT22;45778;51.142;3.732;2023-09-08T00:41:30;19.70;99.90
59923;DHT22;45778;51.142;3.732;2023-09-08T00:43:56;19.70;99.90
59923;DHT22;45778;51.142;3.732;2023-09-08T00:46:22;19.70;99.90
59923;DHT22;45778;51.142;3.732;2023-09-08T00:48:47;19.70;99.90
59923;DHT22;45778;51.142;3.732;2023-09-08T00:51:13;19.70;99.90
59923;DHT22;45778;51.142;3.732;2023-09-08T00:53:39;19.70;99.90
59923;DHT22;45778;51.142;3.732;2023-09-08T00:56:05;19.80;99.90
59923;DHT22;45778;51.142;3.732;2023-09-08T00:58:32;19.80;99.90
59923;DHT22;45778;51.142;3.732;2023-09-08T01:00:58;19.70;99.90
59923;DHT22;45778;51.142;3.732;2023-09-08T01:03:24;19.70;99.90
59923;DHT22;45778;51.142;3.732;2023-09-08T01:05:50;19.80;99.90
59923;DHT22;45778;51.142;3.732;2023-09-08T01:08:16;19.80;99.90
59923;DHT22;45778;51.142;3.732;2023-09-08T01:10:43;19.80;99.90
59923;DHT22;45778;51.142;3.732;2023-09-08T01:13:09;19.80;99.90
59923;DHT22;45778;51.142;3.732;2023-09-08T01:15:34;19.70;99.90
59923;DHT22;45778;51.142;3.732;2023-09-08T01:18:00;19.60;99.90
59923;DHT22;45778;51.142;3.732;2023-09-08T01:20:30;19.60;99.90
59923;DHT22;45778;51.142;3.732;2023-09-08T01:23:30;19.60;99.90
59923;DHT22;45778;51.142;3.732;2023-09-08T01:26:08;19.60;99.90
59923;DHT22;45778;51.142;3.732;2023-09-08T01:28:35;19.60;99.90
59923;DHT22;45778;51.142;3.732;2023-09-08T01:31:01;19.60;99.90
59923;DHT22;45778;51.142;3.732;2023-09-08T01:33:27;19.60;99.90
59923;DHT22;45778;51.142;3.732;2023-09-08T01:35:57;19.50;99.90
59923;DHT22;45778;51.142;3.732;2023-09-08T01:38:25;19.50;99.90
59923;DHT22;45778;51.142;3.732;2023-09-08T01:40:51;19.50;99.90
59923;DHT22;45778;51.142;3.732;2023-09-08T01:43:19;19.50;99.90
59923;DHT22;45778;51.142;3.732;2023-09-08T01:45:47;19.50;99.90
59923;DHT22;45778;51.142;3.732;2023-09-08T01:48:13;19.60;99.90
59923;DHT22;45778;51.142;3.732;2023-09-08T01:50:38;19.60;99.90
59923;DHT22;45778;51.142;3.732;2023-09-08T01:53:07;19.50;99.90
59923;DHT22;45778;51.142;3.732;2023-09-08T01:55:32;19.50;99.90
59923;DHT22;45778;51.142;3.732;2023-09-08T01:57:58;19.50;99.90
59923;DHT22;45778;51.142;3.732;2023-09-08T02:00:24;19.50;99.90
59923;DHT22;45778;51.142;3.732;2023-09-08T02:02:52;19.50;99.90
59923;DHT22;45778;51.142;3.732;2023-09-08T02:05:18;19.50;99.90
59923;DHT22;45778;51.142;3.732;2023-09-08T02:07:44;19.50;99.90
59923;DHT22;45778;51.142;3.732;2023-09-08T02:10:09;19.50;99.90
59923;DHT22;45778;51.142;3.732;2023-09-08T02:12:36;19.50;99.90
59923;DHT22;45778;51.142;3.732;2023-09-08T02:15:02;19.50;99.90
59923;DHT22;45778;51.142;3.732;2023-09-08T02:17:29;19.50;99.90
59923;DHT22;45778;51.142;3.732;2023-09-08T02:19:55;19.50;99.90
59923;DHT22;45778;51.142;3.732;2023-09-08T02:22:23;19.50;99.90
59923;DHT22;45778;51.142;3.732;2023-09-08T02:24:49;19.50;99.90
59923;DHT22;45778;51.142;3.732;2023-09-08T02:27:18;19.40;99.90
59923;DHT22;45778;51.142;3.732;2023-09-08T02:29:44;19.40;99.90
59923;DHT22;45778;51.142;3.732;2023-09-08T02:32:10;19.40;99.90
59923;DHT22;45778;51.142;3.732;2023-09-08T02:34:36;19.40;99.90
59923;DHT22;45778;51.142;3.732;2023-09-08T02:37:02;19.40;99.90
59923;DHT22;45778;51.142;3.732;2023-09-08T02:39:28;19.40;99.90
59923;DHT22;45778;51.142;3.732;2023-09-08T02:41:54;19.40;99.90
59923;DHT22;45778;51.142;3.732;2023-09-08T02:44:20;19.40;99.90
59923;DHT22;45778;51.142;3.732;2023-09-08T02:46:47;19.30;99.90
59923;DHT22;45778;51.142;3.732;2023-09-08T02:49:13;19.40;99.90
59923;DHT22;45778;51.142;3.732;2023-09-08T02:51:38;19.30;99.90
59923;DHT22;45778;51.142;3.732;2023-09-08T02:54:04;19.30;99.90
59923;DHT22;45778;51.142;3.732;2023-09-08T02:56:33;19.30;99.90
59923;DHT22;45778;51.142;3.732;2023-09-08T02:59:01;19.30;99.90
59923;DHT22;45778;51.142;3.732;2023-09-08T03:01:27;19.30;99.90
59923;DHT22;45778;51.142;3.732;2023-09-08T03:03:53;19.30;99.90
59923;DHT22;45778;51.142;3.732;2023-09-08T03:06:20;19.20;99.90
59923;DHT22;45778;51.142;3.732;2023-09-08T03:08:46;19.20;99.90
59923;DHT22;45778;51.142;3.732;2023-09-08T03:11:12;19.10;99.90
59923;DHT22;45778;51.142;3.732;2023-09-08T03:13:38;19.20;99.90
59923;DHT22;45778;51.142;3.732;2023-09-08T03:16:08;19.20;99.90
59923;DHT22;45778;51.142;3.732;2023-09-08T03:18:35;19.10;99.90
59923;DHT22;45778;51.142;3.732;2023-09-08T03:21:02;19.10;99.90
59923;DHT22;45778;51.142;3.732;2023-09-08T03:23:36;19.10;99.90
59923;DHT22;45778;51.142;3.732;2023-09-08T03:26:02;19.00;99.90
59923;DHT22;45778;51.142;3.732;2023-09-08T03:28:32;19.00;99.90
59923;DHT22;45778;51.142;3.732;2023-09-08T03:30:57;19.00;99.90
59923;DHT22;45778;51.142;3.732;2023-09-08T03:33:23;19.00;99.90
59923;DHT22;45778;51.142;3.732;2023-09-08T03:35:49;19.00;99.90
59923;DHT22;45778;51.142;3.732;2023-09-08T03:38:14;19.00;99.90
59923;DHT22;45778;51.142;3.732;2023-09-08T03:40:40;19.00;99.90
59923;DHT22;45778;51.142;3.732;2023-09-08T03:43:06;19.00;99.90
59923;DHT22;45778;51.142;3.732;2023-09-08T03:45:34;18.90;99.90
59923;DHT22;45778;51.142;3.732;2023-09-08T03:48:00;18.90;99.90
59923;DHT22;45778;51.142;3.732;2023-09-08T03:50:26;18.90;99.90
59923;DHT22;45778;51.142;3.732;2023-09-08T03:52:51;18.80;99.90
59923;DHT22;45778;51.142;3.732;2023-09-08T03:55:19;18.80;99.90
59923;DHT22;45778;51.142;3.732;2023-09-08T03:57:45;18.70;99.90
59923;DHT22;45778;51.142;3.732;2023-09-08T04:00:11;18.60;99.90
59923;DHT22;45778;51.142;3.732;2023-09-08T04:02:37;18.60;99.90
59923;DHT22;45778;51.142;3.732;2023-09-08T04:05:03;18.70;99.90
59923;DHT22;45778;51.142;3.732;2023-09-08T04:07:32;18.70;99.90
59923;DHT22;45778;51.142;3.732;2023-09-08T04:09:57;18.70;99.90
59923;DHT22;45778;51.142;3.732;2023-09-08T04:12:23;18.60;99.90
59923;DHT22;45778;51.142;3.732;2023-09-08T04:14:49;18.60;99.90
59923;DHT22;45778;51.142;3.732;2023-09-08T04:17:14;18.60;99.90
59923;DHT22;45778;51.142;3.732;2023-09-08T04:19:40;18.60;99.90
59923;DHT22;45778;51.142;3.732;2023-09-08T04:22:05;18.60;99.90
59923;DHT22;45778;51.142;3.732;2023-09-08T04:24:35;18.50;99.90
59923;DHT22;45778;51.142;3.732;2023-09-08T04:27:01;18.50;99.90
59923;DHT22;45778;51.142;3.732;2023-09-08T04:29:27;18.50;99.90
59923;DHT22;45778;51.142;3.732;2023-09-08T04:31:55;18.50;99.90
59923;DHT22;45778;51.142;3.732;2023-09-08T04:34:20;18.50;99.90
59923;DHT22;45778;51.142;3.732;2023-09-08T04:36:46;18.50;99.90
59923;DHT22;45778;51.142;3.732;2023-09-08T04:39:12;18.40;99.90
59923;DHT22;45778;51.142;3.732;2023-09-08T04:41:38;18.40;99.90
59923;DHT22;45778;51.142;3.732;2023-09-08T04:44:04;18.50;99.90
59923;DHT22;45778;51.142;3.732;2023-09-08T04:46:30;18.40;99.90
59923;DHT22;45778;51.142;3.732;2023-09-08T04:48:56;18.40;99.90
59923;DHT22;45778;51.142;3.732;2023-09-08T04:51:22;18.40;99.90
59923;DHT22;45778;51.142;3.732;2023-09-08T04:53:47;18.30;99.90
59923;DHT22;45778;51.142;3.732;2023-09-08T04:56:13;18.30;99.90
59923;DHT22;45778;51.142;3.732;2023-09-08T04:58:39;18.30;99.90
59923;DHT22;45778;51.142;3.732;2023-09-08T05:01:05;18.20;99.90
59923;DHT22;45778;51.142;3.732;2023-09-08T05:03:31;18.20;99.90
59923;DHT22;45778;51.142;3.732;2023-09-08T05:05:56;18.20;99.90
59923;DHT22;45778;51.142;3.732;2023-09-08T05:08:22;18.20;99.90
59923;DHT22;45778;51.142;3.732;2023-09-08T05:10:48;18.20;99.90
59923;DHT22;45778;51.142;3.732;2023-09-08T05:13:16;18.20;99.90
59923;DHT22;45778;51.142;3.732;2023-09-08T05:15:41;18.20;99.90
59923;DHT22;45778;51.142;3.732;2023-09-08T05:18:09;18.30;99.90
59923;DHT22;45778;51.142;3.732;2023-09-08T05:20:35;18.30;99.90
59923;DHT22;45778;51.142;3.732;2023-09-08T05:23:00;18.30;99.90
59923;DHT22;45778;51.142;3.732;2023-09-08T05:25:26;18.30;99.90
59923;DHT22;45778;51.142;3.732;2023-09-08T05:27:55;18.40;99.90
59923;DHT22;45778;51.142;3.732;2023-09-08T05:30:21;18.60;99.90
59923;DHT22;45778;51.142;3.732;2023-09-08T05:32:47;18.60;99.90
59923;DHT22;45778;51.142;3.732;2023-09-08T05:35:12;18.70;99.90
59923;DHT22;45778;51.142;3.732;2023-09-08T05:37:38;18.80;99.90
59923;DHT22;45778;51.142;3.732;2023-09-08T05:40:04;18.90;99.90
59923;DHT22;45778;51.142;3.732;2023-09-08T05:42:30;19.00;99.90
59923;DHT22;45778;51.142;3.732;2023-09-08T05:44:56;19.10;99.90
59923;DHT22;45778;51.142;3.732;2023-09-08T05:47:21;19.20;99.90
59923;DHT22;45778;51.142;3.732;2023-09-08T05:49:47;19.30;99.90
59923;DHT22;45778;51.142;3.732;2023-09-08T05:52:13;19.30;99.90
59923;DHT22;45778;51.142;3.732;2023-09-08T05:54:38;19.40;99.90
59923;DHT22;45778;51.142;3.732;2023-09-08T05:57:07;19.50;99.90
59923;DHT22;45778;51.142;3.732;2023-09-08T05:59:33;19.60;99.90
59923;DHT22;45778;51.142;3.732;2023-09-08T06:02:01;19.70;99.90
59923;DHT22;45778;51.142;3.732;2023-09-08T06:04:30;19.80;99.90
59923;DHT22;45778;51.142;3.732;2023-09-08T06:06:58;19.90;99.90
59923;DHT22;45778;51.142;3.732;2023-09-08T06:09:23;20.00;99.90
59923;DHT22;45778;51.142;3.732;2023-09-08T06:11:49;20.10;99.90
59923;DHT22;45778;51.142;3.732;2023-09-08T06:14:15;20.20;99.90
59923;DHT22;45778;51.142;3.732;2023-09-08T06:16:40;20.30;99.90
59923;DHT22;45778;51.142;3.732;2023-09-08T06:19:07;20.40;99.90
59923;DHT22;45778;51.142;3.732;2023-09-08T06:21:32;20.40;99.90
59923;DHT22;45778;51.142;3.732;2023-09-08T06:23:58;20.50;99.90
59923;DHT22;45778;51.142;3.732;2023-09-08T06:26:24;20.60;99.90
59923;DHT22;45778;51.142;3.732;2023-09-08T06:28:49;20.70;99.90
59923;DHT22;45778;51.142;3.732;2023-09-08T06:31:15;20.80;99.90
59923;DHT22;45778;51.142;3.732;2023-09-08T06:33:41;20.90;99.90
59923;DHT22;45778;51.142;3.732;2023-09-08T06:36:06;21.10;99.90
59923;DHT22;45778;51.142;3.732;2023-09-08T06:38:32;21.20;99.90
59923;DHT22;45778;51.142;3.732;2023-09-08T06:40:58;21.30;99.90
59923;DHT22;45778;51.142;3.732;2023-09-08T06:43:24;21.10;99.90
59923;DHT22;45778;51.142;3.732;2023-09-08T06:45:50;21.30;99.90
59923;DHT22;45778;51.142;3.732;2023-09-08T06:48:16;21.40;99.90
59923;DHT22;45778;51.142;3.732;2023-09-08T06:50:41;21.40;99.90
59923;DHT22;45778;51.142;3.732;2023-09-08T06:53:07;21.50;99.90
59923;DHT22;45778;51.142;3.732;2023-09-08T06:55:33;21.70;99.90
59923;DHT22;45778;51.142;3.732;2023-09-08T06:57:58;21.80;99.90
59923;DHT22;45778;51.142;3.732;2023-09-08T07:00:24;22.00;99.90
59923;DHT22;45778;51.142;3.732;2023-09-08T07:02:50;22.10;99.90
59923;DHT22;45778;51.142;3.732;2023-09-08T07:05:16;22.20;99.90
59923;DHT22;45778;51.142;3.732;2023-09-08T07:07:42;22.30;99.90
59923;DHT22;45778;51.142;3.732;2023-09-08T07:10:10;22.30;99.90
59923;DHT22;45778;51.142;3.732;2023-09-08T07:12:36;22.40;99.90
59923;DHT22;45778;51.142;3.732;2023-09-08T07:15:02;22.50;99.90
59923;DHT22;45778;51.142;3.732;2023-09-08T07:17:31;22.40;99.90
59923;DHT22;45778;51.142;3.732;2023-09-08T07:19:57;22.40;99.90
59923;DHT22;45778;51.142;3.732;2023-09-08T07:22:22;22.50;99.90
59923;DHT22;45778;51.142;3.732;2023-09-08T07:24:48;22.60;99.90
59923;DHT22;45778;51.142;3.732;2023-09-08T07:27:14;22.70;99.90
59923;DHT22;45778;51.142;3.732;2023-09-08T07:29:41;22.50;99.90
59923;DHT22;45778;51.142;3.732;2023-09-08T07:32:07;22.70;99.90
59923;DHT22;45778;51.142;3.732;2023-09-08T07:34:33;22.90;99.90
59923;DHT22;45778;51.142;3.732;2023-09-08T07:37:00;23.00;99.90
59923;DHT22;45778;51.142;3.732;2023-09-08T07:39:26;22.90;99.90
59923;DHT22;45778;51.142;3.732;2023-09-08T07:41:51;23.00;99.90
59923;DHT22;45778;51.142;3.732;2023-09-08T07:44:18;22.90;99.90
59923;DHT22;45778;51.142;3.732;2023-09-08T07:46:44;23.00;99.90
59923;DHT22;45778;51.142;3.732;2023-09-08T07:49:11;23.10;99.90
59923;DHT22;45778;51.142;3.732;2023-09-08T07:51:37;23.40;99.90
59923;DHT22;45778;51.142;3.732;2023-09-08T07:54:03;23.40;99.90
59923;DHT22;45778;51.142;3.732;2023-09-08T07:56:29;23.40;99.90
59923;DHT22;45778;51.142;3.732;2023-09-08T07:58:55;23.60;99.90
59923;DHT22;45778;51.142;3.732;2023-09-08T08:01:21;23.70;99.90
59923;DHT22;45778;51.142;3.732;2023-09-08T08:03:46;23.80;99.90
59923;DHT22;45778;51.142;3.732;2023-09-08T08:06:12;24.10;99.90
59923;DHT22;45778;51.142;3.732;2023-09-08T08:08:37;24.10;99.90
59923;DHT22;45778;51.142;3.732;2023-09-08T08:11:15;24.30;99.90
59923;DHT22;45778;51.142;3.732;2023-09-08T08:13:41;24.40;99.90
59923;DHT22;45778;51.142;3.732;2023-09-08T08:16:07;24.30;99.90
59923;DHT22;45778;51.142;3.732;2023-09-08T08:18:32;24.40;99.90
59923;DHT22;45778;51.142;3.732;2023-09-08T08:20:58;24.30;99.90
59923;DHT22;45778;51.142;3.732;2023-09-08T08:23:26;24.30;99.90
59923;DHT22;45778;51.142;3.732;2023-09-08T08:25:51;24.30;99.90
59923;DHT22;45778;51.142;3.732;2023-09-08T08:28:17;24.40;99.90
59923;DHT22;45778;51.142;3.732;2023-09-08T08:30:43;24.60;99.90
59923;DHT22;45778;51.142;3.732;2023-09-08T08:33:08;24.70;99.90
59923;DHT22;45778;51.142;3.732;2023-09-08T08:35:34;24.90;99.90
59923;DHT22;45778;51.142;3.732;2023-09-08T08:38:00;25.00;99.90
59923;DHT22;45778;51.142;3.732;2023-09-08T08:40:26;25.10;99.90
59923;DHT22;45778;51.142;3.732;2023-09-08T08:42:58;25.10;99.90
59923;DHT22;45778;51.142;3.732;2023-09-08T08:45:25;25.30;99.90
59923;DHT22;45778;51.142;3.732;2023-09-08T08:47:51;25.40;99.90
59923;DHT22;45778;51.142;3.732;2023-09-08T08:50:17;25.50;99.90
59923;DHT22;45778;51.142;3.732;2023-09-08T08:52:43;25.50;99.90
59923;DHT22;45778;51.142;3.732;2023-09-08T08:55:09;25.50;99.90
59923;DHT22;45778;51.142;3.732;2023-09-08T08:57:38;25.70;99.90
59923;DHT22;45778;51.142;3.732;2023-09-08T09:00:10;25.70;99.90
59923;DHT22;45778;51.142;3.732;2023-09-08T09:02:39;25.80;99.90
59923;DHT22;45778;51.142;3.732;2023-09-08T09:05:07;26.00;99.90
59923;DHT22;45778;51.142;3.732;2023-09-08T09:07:33;26.10;99.90
59923;DHT22;45778;51.142;3.732;2023-09-08T09:09:59;26.10;99.90
59923;DHT22;45778;51.142;3.732;2023-09-08T09:12:25;26.30;99.90
59923;DHT22;45778;51.142;3.732;2023-09-08T09:14:54;26.50;99.90
59923;DHT22;45778;51.142;3.732;2023-09-08T09:17:19;26.60;99.90
59923;DHT22;45778;51.142;3.732;2023-09-08T09:19:45;26.60;99.90
59923;DHT22;45778;51.142;3.732;2023-09-08T09:22:10;26.60;99.90
59923;DHT22;45778;51.142;3.732;2023-09-08T09:24:37;26.70;99.90
59923;DHT22;45778;51.142;3.732;2023-09-08T09:27:06;26.70;99.90
59923;DHT22;45778;51.142;3.732;2023-09-08T09:29:33;26.80;99.90
59923;DHT22;45778;51.142;3.732;2023-09-08T09:32:05;27.00;99.90
59923;DHT22;45778;51.142;3.732;2023-09-08T09:34:34;27.10;99.90
59923;DHT22;45778;51.142;3.732;2023-09-08T09:36:59;27.30;99.90
59923;DHT22;45778;51.142;3.732;2023-09-08T09:39:26;27.60;99.90
59923;DHT22;45778;51.142;3.732;2023-09-08T09:41:56;27.70;99.90
59923;DHT22;45778;51.142;3.732;2023-09-08T09:44:23;27.80;99.90
59923;DHT22;45778;51.142;3.732;2023-09-08T09:46:51;28.10;99.90
59923;DHT22;45778;51.142;3.732;2023-09-08T09:49:17;27.90;99.90
59923;DHT22;45778;51.142;3.732;2023-09-08T09:51:48;28.00;99.90
59923;DHT22;45778;51.142;3.732;2023-09-08T09:54:14;28.10;99.90
59923;DHT22;45778;51.142;3.732;2023-09-08T09:56:41;28.30;99.90
59923;DHT22;45778;51.142;3.732;2023-09-08T09:59:11;28.30;99.90
59923;DHT22;45778;51.142;3.732;2023-09-08T10:01:41;28.30;99.90
59923;DHT22;45778;51.142;3.732;2023-09-08T10:04:08;28.40;99.90
59923;DHT22;45778;51.142;3.732;2023-09-08T10:06:35;28.60;99.90
59923;DHT22;45778;51.142;3.732;2023-09-08T10:09:03;28.60;99.90
59923;DHT22;45778;51.142;3.732;2023-09-08T10:14:28;28.80;99.90
59923;DHT22;45778;51.142;3.732;2023-09-08T10:16:58;28.50;99.90
59923;DHT22;45778;51.142;3.732;2023-09-08T10:19:25;28.60;99.90
59923;DHT22;45778;51.142;3.732;2023-09-08T10:21:51;28.60;99.90
59923;DHT22;45778;51.142;3.732;2023-09-08T10:24:26;28.80;99.90
59923;DHT22;45778;51.142;3.732;2023-09-08T10:27:11;28.80;99.90
59923;DHT22;45778;51.142;3.732;2023-09-08T10:29:38;28.60;99.90
59923;DHT22;45778;51.142;3.732;2023-09-08T10:32:06;28.60;99.90
59923;DHT22;45778;51.142;3.732;2023-09-08T10:34:33;28.80;99.90
59923;DHT22;45778;51.142;3.732;2023-09-08T10:36:59;28.80;99.90
59923;DHT22;45778;51.142;3.732;2023-09-08T10:39:32;28.80;99.90
59923;DHT22;45778;51.142;3.732;2023-09-08T10:47:13;28.80;99.90
59923;DHT22;45778;51.142;3.732;2023-09-08T10:49:41;28.90;99.90
59923;DHT22;45778;51.142;3.732;2023-09-08T10:52:12;28.70;99.90
59923;DHT22;45778;51.142;3.732;2023-09-08T10:54:45;28.70;99.90
59923;DHT22;45778;51.142;3.732;2023-09-08T10:57:14;28.60;99.90
59923;DHT22;45778;51.142;3.732;2023-09-08T10:59:45;28.50;99.90
59923;DHT22;45778;51.142;3.732;2023-09-08T11:02:37;28.70;99.90
59923;DHT22;45778;51.142;3.732;2023-09-08T11:07:33;28.70;99.90
59923;DHT22;45778;51.142;3.732;2023-09-08T11:10:02;28.80;99.90
59923;DHT22;45778;51.142;3.732;2023-09-08T11:12:28;28.80;99.90
59923;DHT22;45778;51.142;3.732;2023-09-08T11:14:54;28.80;99.90
59923;DHT22;45778;51.142;3.732;2023-09-08T11:17:24;28.80;99.90
59923;DHT22;45778;51.142;3.732;2023-09-08T11:19:50;28.90;99.90
59923;DHT22;45778;51.142;3.732;2023-09-08T11:22:16;28.90;99.90
59923;DHT22;45778;51.142;3.732;2023-09-08T11:24:43;28.90;99.90
59923;DHT22;45778;51.142;3.732;2023-09-08T11:27:12;29.10;99.90
59923;DHT22;45778;51.142;3.732;2023-09-08T11:29:38;29.20;99.90
59923;DHT22;45778;51.142;3.732;2023-09-08T11:32:07;29.30;99.90
59923;DHT22;45778;51.142;3.732;2023-09-08T11:34:34;29.50;99.90
59923;DHT22;45778;51.142;3.732;2023-09-08T11:37:00;29.50;99.90
59923;DHT22;45778;51.142;3.732;2023-09-08T11:39:26;29.40;99.90
59923;DHT22;45778;51.142;3.732;2023-09-08T11:41:52;29.30;99.90
59923;DHT22;45778;51.142;3.732;2023-09-08T11:44:18;29.20;99.90
59923;DHT22;45778;51.142;3.732;2023-09-08T11:46:44;29.30;99.90
59923;DHT22;45778;51.142;3.732;2023-09-08T11:49:11;29.40;99.90
59923;DHT22;45778;51.142;3.732;2023-09-08T11:51:36;29.40;99.90
59923;DHT22;45778;51.142;3.732;2023-09-08T11:54:03;29.60;99.90
59923;DHT22;45778;51.142;3.732;2023-09-08T11:56:29;29.80;99.90
59923;DHT22;45778;51.142;3.732;2023-09-08T11:58:55;30.10;99.90
59923;DHT22;45778;51.142;3.732;2023-09-08T12:01:22;30.60;99.90
59923;DHT22;45778;51.142;3.732;2023-09-08T12:03:55;30.80;99.30
59923;DHT22;45778;51.142;3.732;2023-09-08T12:06:25;30.90;97.90
59923;DHT22;45778;51.142;3.732;2023-09-08T12:08:51;31.40;98.00
59923;DHT22;45778;51.142;3.732;2023-09-08T12:11:17;32.20;96.00
59923;DHT22;45778;51.142;3.732;2023-09-08T12:13:43;32.50;94.30
59923;DHT22;45778;51.142;3.732;2023-09-08T12:16:21;32.80;93.60
59923;DHT22;45778;51.142;3.732;2023-09-08T12:18:50;33.50;92.90
59923;DHT22;45778;51.142;3.732;2023-09-08T12:21:16;34.10;91.40
59923;DHT22;45778;51.142;3.732;2023-09-08T12:23:52;34.50;90.50
59923;DHT22;45778;51.142;3.732;2023-09-08T12:26:18;34.70;87.20
59923;DHT22;45778;51.142;3.732;2023-09-08T12:28:45;34.50;86.70
59923;DHT22;45778;51.142;3.732;2023-09-08T12:31:13;34.90;85.90
59923;DHT22;45778;51.142;3.732;2023-09-08T12:33:39;35.10;84.20
59923;DHT22;45778;51.142;3.732;2023-09-08T12:36:15;34.70;83.70
59923;DHT22;45778;51.142;3.732;2023-09-08T12:38:41;34.40;82.60
59923;DHT22;45778;51.142;3.732;2023-09-08T12:41:12;34.70;82.70
59923;DHT22;45778;51.142;3.732;2023-09-08T12:43:37;34.60;81.70
59923;DHT22;45778;51.142;3.732;2023-09-08T12:46:03;34.90;81.90
59923;DHT22;45778;51.142;3.732;2023-09-08T12:48:28;35.60;79.60
59923;DHT22;45778;51.142;3.732;2023-09-08T12:50:54;36.60;78.90
59923;DHT22;45778;51.142;3.732;2023-09-08T12:53:20;37.20;77.80
59923;DHT22;45778;51.142;3.732;2023-09-08T12:55:47;37.50;75.70
59923;DHT22;45778;51.142;3.732;2023-09-08T12:58:12;37.60;75.80
59923;DHT22;45778;51.142;3.732;2023-09-08T13:00:38;38.00;76.30
59923;DHT22;45778;51.142;3.732;2023-09-08T13:03:04;39.40;74.30
59923;DHT22;45778;51.142;3.732;2023-09-08T13:05:30;39.40;73.30
59923;DHT22;45778;51.142;3.732;2023-09-08T13:07:56;38.80;73.90
59923;DHT22;45778;51.142;3.732;2023-09-08T13:10:22;39.10;72.10
59923;DHT22;45778;51.142;3.732;2023-09-08T13:12:47;40.50;71.00
59923;DHT22;45778;51.142;3.732;2023-09-08T13:15:15;41.30;69.30
59923;DHT22;45778;51.142;3.732;2023-09-08T13:17:40;41.00;68.60
59923;DHT22;45778;51.142;3.732;2023-09-08T13:20:07;39.20;68.30
59923;DHT22;45778;51.142;3.732;2023-09-08T13:22:33;38.10;70.00
59923;DHT22;45778;51.142;3.732;2023-09-08T13:25:00;36.70;72.50
59923;DHT22;45778;51.142;3.732;2023-09-08T13:27:25;37.20;67.60
59923;DHT22;45778;51.142;3.732;2023-09-08T13:29:53;38.20;65.60
59923;DHT22;45778;51.142;3.732;2023-09-08T13:32:19;38.00;66.30
59923;DHT22;45778;51.142;3.732;2023-09-08T13:34:45;37.30;65.90
59923;DHT22;45778;51.142;3.732;2023-09-08T13:37:13;37.50;66.70
59923;DHT22;45778;51.142;3.732;2023-09-08T13:39:38;38.50;66.20
59923;DHT22;45778;51.142;3.732;2023-09-08T13:42:04;38.80;64.70
59923;DHT22;45778;51.142;3.732;2023-09-08T13:44:30;40.10;64.60
59923;DHT22;45778;51.142;3.732;2023-09-08T13:46:55;41.70;62.20
59923;DHT22;45778;51.142;3.732;2023-09-08T13:49:22;42.50;60.30
59923;DHT22;45778;51.142;3.732;2023-09-08T13:51:50;42.10;61.10
59923;DHT22;45778;51.142;3.732;2023-09-08T13:54:17;42.00;60.30
59923;DHT22;45778;51.142;3.732;2023-09-08T13:56:43;42.20;60.40
59923;DHT22;45778;51.142;3.732;2023-09-08T13:59:09;43.00;59.60
59923;DHT22;45778;51.142;3.732;2023-09-08T14:01:36;44.40;58.30
59923;DHT22;45778;51.142;3.732;2023-09-08T14:04:05;44.10;58.10
59923;DHT22;45778;51.142;3.732;2023-09-08T14:06:33;44.30;58.00
59923;DHT22;45778;51.142;3.732;2023-09-08T14:08:59;44.80;56.90
59923;DHT22;45778;51.142;3.732;2023-09-08T14:11:26;43.90;57.40
59923;DHT22;45778;51.142;3.732;2023-09-08T14:13:52;43.50;57.50
59923;DHT22;45778;51.142;3.732;2023-09-08T14:16:18;44.10;58.60
59923;DHT22;45778;51.142;3.732;2023-09-08T14:18:45;43.80;57.80
59923;DHT22;45778;51.142;3.732;2023-09-08T14:21:11;43.00;57.70
59923;DHT22;45778;51.142;3.732;2023-09-08T14:23:36;43.80;57.20
59923;DHT22;45778;51.142;3.732;2023-09-08T14:26:03;43.50;56.20
59923;DHT22;45778;51.142;3.732;2023-09-08T14:28:29;42.50;55.90
59923;DHT22;45778;51.142;3.732;2023-09-08T14:30:57;42.60;56.40
59923;DHT22;45778;51.142;3.732;2023-09-08T14:33:23;41.70;56.70
59923;DHT22;45778;51.142;3.732;2023-09-08T14:35:49;41.20;56.70
59923;DHT22;45778;51.142;3.732;2023-09-08T14:38:17;41.80;57.20
59923;DHT22;45778;51.142;3.732;2023-09-08T14:40:44;43.30;56.20
59923;DHT22;45778;51.142;3.732;2023-09-08T14:43:10;42.20;55.40
59923;DHT22;45778;51.142;3.732;2023-09-08T14:45:36;42.70;55.40
59923;DHT22;45778;51.142;3.732;2023-09-08T14:48:02;42.90;55.30
59923;DHT22;45778;51.142;3.732;2023-09-08T14:50:27;41.50;56.00
59923;DHT22;45778;51.142;3.732;2023-09-08T14:52:53;40.90;57.40
59923;DHT22;45778;51.142;3.732;2023-09-08T14:55:19;41.50;56.60
59923;DHT22;45778;51.142;3.732;2023-09-08T14:57:44;42.30;56.60
59923;DHT22;45778;51.142;3.732;2023-09-08T15:00:11;43.40;55.90
59923;DHT22;45778;51.142;3.732;2023-09-08T15:02:37;43.80;54.80
59923;DHT22;45778;51.142;3.732;2023-09-08T15:05:02;43.60;55.20
59923;DHT22;45778;51.142;3.732;2023-09-08T15:07:28;44.00;55.30
59923;DHT22;45778;51.142;3.732;2023-09-08T15:09:54;44.60;55.30
59923;DHT22;45778;51.142;3.732;2023-09-08T15:12:19;44.40;54.60
59923;DHT22;45778;51.142;3.732;2023-09-08T15:14:45;44.10;55.30
59923;DHT22;45778;51.142;3.732;2023-09-08T15:17:11;44.40;56.00
59923;DHT22;45778;51.142;3.732;2023-09-08T15:19:41;44.70;57.20
59923;DHT22;45778;51.142;3.732;2023-09-08T15:22:07;43.50;58.70
59923;DHT22;45778;51.142;3.732;2023-09-08T15:24:33;42.80;59.30
59923;DHT22;45778;51.142;3.732;2023-09-08T15:26:59;42.00;60.40
59923;DHT22;45778;51.142;3.732;2023-09-08T15:29:25;41.90;60.40
59923;DHT22;45778;51.142;3.732;2023-09-08T15:31:51;41.10;60.40
59923;DHT22;45778;51.142;3.732;2023-09-08T15:34:17;41.40;60.40
59923;DHT22;45778;51.142;3.732;2023-09-08T15:36:42;41.10;60.40